sensor_id;sensor_type;location;lat;lon;timestamp;temperature;humidity
8402;DHT22;4238;48.404;9.498;2023-08-06T04:01:29;11.60;99.90
8402;DHT22;4238;48.404;9.498;2023-08-06T04:03:55;11.70;99.90
8402;DHT22;4238;48.404;9.498;2023-08-06T04:06:22;11.80;99.90
8402;DHT22;4238;48.404;9.498;2023-08-06T04:08:49;11.90;99.90
8402;DHT22;4238;48.404;9.498;2023-08-06T04:11:16;12.00;99.90
8402;DHT22;4238;48.404;9.498;2023-08-06T04:13:43;12.10;99.90
8402;DHT22;4238;48.404;9.498;2023-08-06T04:16:10;12.10;99.90
8402;DHT22;4238;48.404;9.498;2023-08-06T04:18:39;12.10;99.90
8402;DHT22;4238;48.404;9.498;2023-08-06T04:21:06;12.10;99.90
8402;DHT22;4238;48.404;9.498;2023-08-06T04:23:33;12.10;99.90
8402;DHT22;4238;48.404;9.498;2023-08-06T04:25:59;12.10;99.90
8402;DHT22;4238;48.404;9.498;2023-08-06T04:28:26;12.10;99.90
8402;DHT22;4238;48.404;9.498;2023-08-06T04:30:53;12.00;99.90
8402;DHT22;4238;48.404;9.498;2023-08-06T04:33:20;12.10;99.90
8402;DHT22;4238;48.404;9.498;2023-08-06T04:35:53;12.10;99.90
8402;DHT22;4238;48.404;9.498;2023-08-06T04:38:20;12.10;99.90
8402;DHT22;4238;48.404;9.498;2023-08-06T04:40:47;12.10;99.90
8402;DHT22;4238;48.404;9.498;2023-08-06T04:43:14;12.10;99.90
8402;DHT22;4238;48.404;9.498;2023-08-06T04:45:46;12.20;99.90
8402;DHT22;4238;48.404;9.498;2023-08-06T04:48:12;12.10;99.90
8402;DHT22;4238;48.404;9.498;2023-08-06T04:50:43;12.20;99.90
8402;DHT22;4238;48.404;9.498;2023-08-06T04:53:11;12.20;99.90
8402;DHT22;4238;48.404;9.498;2023-08-06T04:55:38;12.10;99.90
8402;DHT22;4238;48.404;9.498;2023-08-06T04:58:05;12.20;99.90
8402;DHT22;4238;48.404;9.498;2023-08-06T05:00:33;12.20;99.90
8402;DHT22;4238;48.404;9.498;2023-08-06T05:03:00;12.10;99.90
8402;DHT22;4238;48.404;9.498;2023-08-06T05:05:27;12.10;99.90
8402;DHT22;4238;48.404;9.498;2023-08-06T05:07:55;12.10;99.90
8402;DHT22;4238;48.404;9.498;2023-08-06T05:10:24;12.30;99.90
8402;DHT22;4238;48.404;9.498;2023-08-06T05:12:51;12.30;99.90
8402;DHT22;4238;48.404;9.498;2023-08-06T05:15:18;12.30;99.90
8402;DHT22;4238;48.404;9.498;2023-08-06T05:17:45;12.30;99.90
8402;DHT22;4238;48.404;9.498;2023-08-06T05:20:12;12.40;99.90
8402;DHT22;4238;48.404;9.498;2023-08-06T05:22:38;12.50;99.90
8402;DHT22;4238;48.404;9.498;2023-08-06T05:25:06;12.60;99.90
8402;DHT22;4238;48.404;9.498;2023-08-06T05:27:34;12.60;99.90
8402;DHT22;4238;48.404;9.498;2023-08-06T05:30:01;12.60;99.90
8402;DHT22;4238;48.404;9.498;2023-08-06T05:32:28;12.60;99.90
8402;DHT22;4238;48.404;9.498;2023-08-06T05:34:55;12.60;99.90
8402;DHT22;4238;48.404;9.498;2023-08-06T05:37:22;12.60;99.90
8402;DHT22;4238;48.404;9.498;2023-08-06T05:39:49;12.60;99.90
8402;DHT22;4238;48.404;9.498;2023-08-06T05:42:16;12.60;99.90
8402;DHT22;4238;48.404;9.498;2023-08-06T05:44:44;12.70;99.90
8402;DHT22;4238;48.404;9.498;2023-08-06T05:47:11;12.80;99.90
8402;DHT22;4238;48.404;9.498;2023-08-06T05:49:38;12.80;99.90
8402;DHT22;4238;48.404;9.498;2023-08-06T05:52:05;12.70;99.90
8402;DHT22;4238;48.404;9.498;2023-08-06T05:54:33;12.70;99.90
8402;DHT22;4238;48.404;9.498;2023-08-06T05:57:00;12.60;99.90
8402;DHT22;4238;48.404;9.498;2023-08-06T05:59:27;12.50;99.90
8402;DHT22;4238;48.404;9.498;2023-08-06T06:01:55;12.60;99.90
8402;DHT22;4238;48.404;9.498;2023-08-06T06:04:22;12.90;99.90
8402;DHT22;4238;48.404;9.498;2023-08-06T06:06:49;13.30;99.90
8402;DHT22;4238;48.404;9.498;2023-08-06T06:09:16;13.70;99.90
8402;DHT22;4238;48.404;9.498;2023-08-06T06:11:43;14.20;96.10
8402;DHT22;4238;48.404;9.498;2023-08-06T06:14:10;14.30;88.90
8402;DHT22;4238;48.404;9.498;2023-08-06T06:16:36;14.10;81.30
8402;DHT22;4238;48.404;9.498;2023-08-06T06:19:05;13.90;90.60
8402;DHT22;4238;48.404;9.498;2023-08-06T06:21:32;13.80;96.80
8402;DHT22;4238;48.404;9.498;2023-08-06T06:23:58;13.70;96.90
8402;DHT22;4238;48.404;9.498;2023-08-06T06:26:25;13.70;96.00
8402;DHT22;4238;48.404;9.498;2023-08-06T06:28:52;13.70;99.90
8402;DHT22;4238;48.404;9.498;2023-08-06T06:31:19;13.70;99.90
8402;DHT22;4238;48.404;9.498;2023-08-06T06:33:46;13.70;97.40
8402;DHT22;4238;48.404;9.498;2023-08-06T06:36:14;13.60;97.20
8402;DHT22;4238;48.404;9.498;2023-08-06T06:38:41;13.60;99.90
8402;DHT22;4238;48.404;9.498;2023-08-06T06:41:08;13.60;99.70
8402;DHT22;4238;48.404;9.498;2023-08-06T06:43:34;13.60;99.90
8402;DHT22;4238;48.404;9.498;2023-08-06T06:46:03;13.80;99.90
8402;DHT22;4238;48.404;9.498;2023-08-06T06:48:32;13.90;99.90
8402;DHT22;4238;48.404;9.498;2023-08-06T06:51:00;13.90;94.50
8402;DHT22;4238;48.404;9.498;2023-08-06T06:53:28;13.80;95.10
8402;DHT22;4238;48.404;9.498;2023-08-06T06:55:55;13.80;99.90
8402;DHT22;4238;48.404;9.498;2023-08-06T06:58:22;14.00;99.90
8402;DHT22;4238;48.404;9.498;2023-08-06T07:00:49;14.00;94.60
8402;DHT22;4238;48.404;9.498;2023-08-06T07:03:16;13.90;98.30
8402;DHT22;4238;48.404;9.498;2023-08-06T07:05:44;13.80;95.70
8402;DHT22;4238;48.404;9.498;2023-08-06T07:08:11;13.90;99.60
8402;DHT22;4238;48.404;9.498;2023-08-06T07:10:40;13.90;93.90
8402;DHT22;4238;48.404;9.498;2023-08-06T07:13:07;13.90;99.90
8402;DHT22;4238;48.404;9.498;2023-08-06T07:15:34;13.80;94.70
8402;DHT22;4238;48.404;9.498;2023-08-06T07:18:01;13.70;99.90
8402;DHT22;4238;48.404;9.498;2023-08-06T07:20:28;13.70;99.90
8402;DHT22;4238;48.404;9.498;2023-08-06T07:22:57;13.70;99.90
8402;DHT22;4238;48.404;9.498;2023-08-06T07:25:24;13.80;99.90
8402;DHT22;4238;48.404;9.498;2023-08-06T07:27:52;13.80;99.90
8402;DHT22;4238;48.404;9.498;2023-08-06T07:30:19;13.80;99.90
8402;DHT22;4238;48.404;9.498;2023-08-06T07:32:46;13.70;99.90
8402;DHT22;4238;48.404;9.498;2023-08-06T07:35:13;13.70;99.90
8402;DHT22;4238;48.404;9.498;2023-08-06T07:37:40;13.70;99.90
8402;DHT22;4238;48.404;9.498;2023-08-06T07:40:07;13.90;99.90
8402;DHT22;4238;48.404;9.498;2023-08-06T07:42:34;14.00;99.90
8402;DHT22;4238;48.404;9.498;2023-08-06T07:45:03;14.20;99.90
8402;DHT22;4238;48.404;9.498;2023-08-06T07:47:30;14.20;95.70
8402;DHT22;4238;48.404;9.498;2023-08-06T07:49:57;13.80;99.90
8402;DHT22;4238;48.404;9.498;2023-08-06T07:52:23;13.90;99.90
8402;DHT22;4238;48.404;9.498;2023-08-06T07:54:50;13.80;99.90
8402;DHT22;4238;48.404;9.498;2023-08-06T07:57:17;13.80;98.20
8402;DHT22;4238;48.404;9.498;2023-08-06T07:59:44;13.80;99.90
8402;DHT22;4238;48.404;9.498;2023-08-06T08:02:12;13.70;99.90
8402;DHT22;4238;48.404;9.498;2023-08-06T08:04:39;13.60;99.90
8402;DHT22;4238;48.404;9.498;2023-08-06T08:07:06;13.50;99.90
8402;DHT22;4238;48.404;9.498;2023-08-06T08:09:34;13.60;99.90
8402;DHT22;4238;48.404;9.498;2023-08-06T08:12:01;13.60;99.90
8402;DHT22;4238;48.404;9.498;2023-08-06T08:14:28;13.60;99.90
8402;DHT22;4238;48.404;9.498;2023-08-06T08:17:00;13.70;99.90
8402;DHT22;4238;48.404;9.498;2023-08-06T08:19:29;13.70;99.90
8402;DHT22;4238;48.404;9.498;2023-08-06T08:21:56;13.70;99.90
8402;DHT22;4238;48.404;9.498;2023-08-06T08:24:23;13.70;99.90
8402;DHT22;4238;48.404;9.498;2023-08-06T08:26:50;13.80;99.90
8402;DHT22;4238;48.404;9.498;2023-08-06T08:29:17;13.90;99.90
8402;DHT22;4238;48.404;9.498;2023-08-06T08:31:44;13.80;88.90
8402;DHT22;4238;48.404;9.498;2023-08-06T08:34:11;13.90;99.40
8402;DHT22;4238;48.404;9.498;2023-08-06T08:36:39;13.80;99.90
8402;DHT22;4238;48.404;9.498;2023-08-06T08:39:06;13.90;99.90
8402;DHT22;4238;48.404;9.498;2023-08-06T08:41:33;14.00;99.90
8402;DHT22;4238;48.404;9.498;2023-08-06T08:44:02;14.10;99.90
8402;DHT22;4238;48.404;9.498;2023-08-06T08:46:30;14.10;98.40
8402;DHT22;4238;48.404;9.498;2023-08-06T08:48:59;14.00;93.90
8402;DHT22;4238;48.404;9.498;2023-08-06T08:51:27;13.90;91.60
8402;DHT22;4238;48.404;9.498;2023-08-06T08:53:56;13.60;99.90
8402;DHT22;4238;48.404;9.498;2023-08-06T08:56:23;13.60;99.90
8402;DHT22;4238;48.404;9.498;2023-08-06T08:58:50;13.60;99.90
8402;DHT22;4238;48.404;9.498;2023-08-06T09:01:19;13.50;99.90
8402;DHT22;4238;48.404;9.498;2023-08-06T09:03:47;13.40;99.90
8402;DHT22;4238;48.404;9.498;2023-08-06T09:06:15;13.40;99.90
8402;DHT22;4238;48.404;9.498;2023-08-06T09:08:49;13.40;99.90
8402;DHT22;4238;48.404;9.498;2023-08-06T09:11:19;13.40;99.90
8402;DHT22;4238;48.404;9.498;2023-08-06T09:13:47;13.30;99.90
8402;DHT22;4238;48.404;9.498;2023-08-06T09:16:14;13.40;99.90
8402;DHT22;4238;48.404;9.498;2023-08-06T09:18:41;13.40;99.90
8402;DHT22;4238;48.404;9.498;2023-08-06T09:21:13;13.40;99.90
8402;DHT22;4238;48.404;9.498;2023-08-06T09:23:41;13.40;99.90
8402;DHT22;4238;48.404;9.498;2023-08-06T09:26:11;13.50;99.90
8402;DHT22;4238;48.404;9.498;2023-08-06T09:28:40;13.50;99.90
8402;DHT22;4238;48.404;9.498;2023-08-06T09:31:09;13.40;99.90
8402;DHT22;4238;48.404;9.498;2023-08-06T09:33:37;13.30;99.90
8402;DHT22;4238;48.404;9.498;2023-08-06T09:36:08;13.40;99.90
8402;DHT22;4238;48.404;9.498;2023-08-06T09:38:38;13.50;99.90
8402;DHT22;4238;48.404;9.498;2023-08-06T09:41:05;13.40;99.90
8402;DHT22;4238;48.404;9.498;2023-08-06T09:43:41;13.40;99.90
8402;DHT22;4238;48.404;9.498;2023-08-06T09:46:12;13.50;99.90
8402;DHT22;4238;48.404;9.498;2023-08-06T09:48:41;13.60;99.90
8402;DHT22;4238;48.404;9.498;2023-08-06T09:51:11;13.70;99.90
8402;DHT22;4238;48.404;9.498;2023-08-06T09:53:40;13.70;99.90
8402;DHT22;4238;48.404;9.498;2023-08-06T09:56:08;13.70;99.90
8402;DHT22;4238;48.404;9.498;2023-08-06T09:58:37;13.70;99.90
8402;DHT22;4238;48.404;9.498;2023-08-06T10:01:06;13.70;99.90
8402;DHT22;4238;48.404;9.498;2023-08-06T10:03:34;13.80;99.90
8402;DHT22;4238;48.404;9.498;2023-08-06T10:06:01;14.00;99.90
8402;DHT22;4238;48.404;9.498;2023-08-06T10:08:32;14.10;99.90
8402;DHT22;4238;48.404;9.498;2023-08-06T10:10:59;14.20;99.90
8402;DHT22;4238;48.404;9.498;2023-08-06T10:13:28;14.40;99.90
8402;DHT22;4238;48.404;9.498;2023-08-06T10:15:55;14.20;99.80
8402;DHT22;4238;48.404;9.498;2023-08-06T10:18:23;14.20;99.90
8402;DHT22;4238;48.404;9.498;2023-08-06T10:20:50;14.10;99.90
8402;DHT22;4238;48.404;9.498;2023-08-06T10:23:17;14.00;99.90
8402;DHT22;4238;48.404;9.498;2023-08-06T10:25:53;13.80;99.90
8402;DHT22;4238;48.404;9.498;2023-08-06T10:28:22;13.70;99.90
8402;DHT22;4238;48.404;9.498;2023-08-06T10:30:49;13.70;99.90
8402;DHT22;4238;48.404;9.498;2023-08-06T10:33:19;13.70;99.90
8402;DHT22;4238;48.404;9.498;2023-08-06T10:35:50;13.70;99.90
8402;DHT22;4238;48.404;9.498;2023-08-06T10:38:19;13.50;99.90
8402;DHT22;4238;48.404;9.498;2023-08-06T10:40:49;13.40;99.90
8402;DHT22;4238;48.404;9.498;2023-08-06T10:43:26;13.30;99.90
8402;DHT22;4238;48.404;9.498;2023-08-06T10:45:53;13.30;99.90
8402;DHT22;4238;48.404;9.498;2023-08-06T10:48:29;13.20;99.90
8402;DHT22;4238;48.404;9.498;2023-08-06T10:51:00;13.10;99.90
8402;DHT22;4238;48.404;9.498;2023-08-06T10:53:27;13.10;99.90
8402;DHT22;4238;48.404;9.498;2023-08-06T10:55:54;13.10;99.90
8402;DHT22;4238;48.404;9.498;2023-08-06T10:58:20;13.20;99.90
8402;DHT22;4238;48.404;9.498;2023-08-06T11:00:47;13.30;99.90
8402;DHT22;4238;48.404;9.498;2023-08-06T11:03:14;13.30;99.90
8402;DHT22;4238;48.404;9.498;2023-08-06T11:05:48;13.40;99.90
8402;DHT22;4238;48.404;9.498;2023-08-06T11:08:25;13.40;99.90
8402;DHT22;4238;48.404;9.498;2023-08-06T11:10:52;13.40;99.90
8402;DHT22;4238;48.404;9.498;2023-08-06T11:13:21;13.40;99.90
8402;DHT22;4238;48.404;9.498;2023-08-06T11:15:48;13.40;99.90
8402;DHT22;4238;48.404;9.498;2023-08-06T11:18:14;13.50;99.90
8402;DHT22;4238;48.404;9.498;2023-08-06T11:20:41;13.60;99.90
8402;DHT22;4238;48.404;9.498;2023-08-06T11:23:10;13.70;99.90
8402;DHT22;4238;48.404;9.498;2023-08-06T11:25:44;13.80;99.90
8402;DHT22;4238;48.404;9.498;2023-08-06T11:28:11;13.90;99.90
8402;DHT22;4238;48.404;9.498;2023-08-06T11:30:38;14.00;99.90
8402;DHT22;4238;48.404;9.498;2023-08-06T11:33:07;14.00;99.90
8402;DHT22;4238;48.404;9.498;2023-08-06T11:35:35;13.90;99.90
8402;DHT22;4238;48.404;9.498;2023-08-06T11:38:02;13.90;99.90
8402;DHT22;4238;48.404;9.498;2023-08-06T11:40:29;13.90;99.90
8402;DHT22;4238;48.404;9.498;2023-08-06T11:42:58;13.70;99.90
8402;DHT22;4238;48.404;9.498;2023-08-06T11:45:25;13.60;99.90
8402;DHT22;4238;48.404;9.498;2023-08-06T11:47:52;13.60;99.90
8402;DHT22;4238;48.404;9.498;2023-08-06T11:50:23;13.60;99.90
8402;DHT22;4238;48.404;9.498;2023-08-06T11:52:53;13.70;99.90
8402;DHT22;4238;48.404;9.498;2023-08-06T11:55:23;13.70;99.90
8402;DHT22;4238;48.404;9.498;2023-08-06T11:57:51;13.60;99.90
8402;DHT22;4238;48.404;9.498;2023-08-06T12:00:19;13.70;99.90
8402;DHT22;4238;48.404;9.498;2023-08-06T12:02:48;13.70;99.90
8402;DHT22;4238;48.404;9.498;2023-08-06T12:05:18;13.80;99.90
8402;DHT22;4238;48.404;9.498;2023-08-06T12:07:47;13.90;99.90
8402;DHT22;4238;48.404;9.498;2023-08-06T12:10:14;14.00;99.90
8402;DHT22;4238;48.404;9.498;2023-08-06T12:12:42;14.30;99.90
8402;DHT22;4238;48.404;9.498;2023-08-06T12:15:10;14.40;99.90
8402;DHT22;4238;48.404;9.498;2023-08-06T12:17:38;14.60;99.90
8402;DHT22;4238;48.404;9.498;2023-08-06T12:20:06;14.60;98.80
8402;DHT22;4238;48.404;9.498;2023-08-06T12:22:33;14.60;90.70
8402;DHT22;4238;48.404;9.498;2023-08-06T12:25:01;14.50;94.00
8402;DHT22;4238;48.404;9.498;2023-08-06T12:27:28;14.40;91.80
8402;DHT22;4238;48.404;9.498;2023-08-06T12:29:55;14.40;97.40
8402;DHT22;4238;48.404;9.498;2023-08-06T12:32:22;14.30;99.00
8402;DHT22;4238;48.404;9.498;2023-08-06T12:34:50;14.20;99.90
8402;DHT22;4238;48.404;9.498;2023-08-06T12:37:17;14.10;99.90
8402;DHT22;4238;48.404;9.498;2023-08-06T12:39:44;14.10;99.90
8402;DHT22;4238;48.404;9.498;2023-08-06T12:42:11;14.00;99.90
8402;DHT22;4238;48.404;9.498;2023-08-06T12:44:38;14.00;99.90
8402;DHT22;4238;48.404;9.498;2023-08-06T12:47:05;13.90;99.90
8402;DHT22;4238;48.404;9.498;2023-08-06T12:49:31;13.90;99.90
8402;DHT22;4238;48.404;9.498;2023-08-06T12:52:00;13.80;99.90
8402;DHT22;4238;48.404;9.498;2023-08-06T12:54:28;13.60;93.40
8402;DHT22;4238;48.404;9.498;2023-08-06T12:56:55;13.50;97.50
8402;DHT22;4238;48.404;9.498;2023-08-06T12:59:22;13.40;99.90
8402;DHT22;4238;48.404;9.498;2023-08-06T13:01:49;13.40;99.90
8402;DHT22;4238;48.404;9.498;2023-08-06T13:04:16;13.40;99.90
8402;DHT22;4238;48.404;9.498;2023-08-06T13:06:43;13.50;99.90
8402;DHT22;4238;48.404;9.498;2023-08-06T13:09:11;13.50;99.90
8402;DHT22;4238;48.404;9.498;2023-08-06T13:11:39;13.40;99.90
8402;DHT22;4238;48.404;9.498;2023-08-06T13:14:13;13.50;99.90
8402;DHT22;4238;48.404;9.498;2023-08-06T13:16:41;13.50;98.90
8402;DHT22;4238;48.404;9.498;2023-08-06T13:19:08;13.40;99.90
8402;DHT22;4238;48.404;9.498;2023-08-06T13:21:58;13.30;99.90
8402;DHT22;4238;48.404;9.498;2023-08-06T13:24:26;13.10;99.90
8402;DHT22;4238;48.404;9.498;2023-08-06T13:26:53;13.20;99.90
8402;DHT22;4238;48.404;9.498;2023-08-06T13:29:21;13.40;99.90
8402;DHT22;4238;48.404;9.498;2023-08-06T13:31:48;13.50;99.90
8402;DHT22;4238;48.404;9.498;2023-08-06T13:34:15;13.50;95.90
8402;DHT22;4238;48.404;9.498;2023-08-06T13:36:42;13.40;81.90
8402;DHT22;4238;48.404;9.498;2023-08-06T13:39:09;13.40;94.60
8402;DHT22;4238;48.404;9.498;2023-08-06T13:41:38;13.30;92.40
8402;DHT22;4238;48.404;9.498;2023-08-06T13:44:06;13.20;97.90
8402;DHT22;4238;48.404;9.498;2023-08-06T13:46:33;13.20;99.90
8402;DHT22;4238;48.404;9.498;2023-08-06T13:49:00;13.10;99.90
8402;DHT22;4238;48.404;9.498;2023-08-06T13:51:27;13.30;99.90
8402;DHT22;4238;48.404;9.498;2023-08-06T13:53:54;13.50;99.90
8402;DHT22;4238;48.404;9.498;2023-08-06T13:56:23;13.60;98.20
8402;DHT22;4238;48.404;9.498;2023-08-06T13:58:51;13.60;96.90
8402;DHT22;4238;48.404;9.498;2023-08-06T14:01:18;13.60;99.90
8402;DHT22;4238;48.404;9.498;2023-08-06T14:03:45;13.60;98.90
8402;DHT22;4238;48.404;9.498;2023-08-06T14:06:12;13.50;99.80
8402;DHT22;4238;48.404;9.498;2023-08-06T14:08:39;13.50;99.90
8402;DHT22;4238;48.404;9.498;2023-08-06T14:11:05;13.40;99.90
8402;DHT22;4238;48.404;9.498;2023-08-06T14:13:32;13.30;99.90
8402;DHT22;4238;48.404;9.498;2023-08-06T14:16:01;13.30;99.90
8402;DHT22;4238;48.404;9.498;2023-08-06T14:18:27;13.40;99.90
8402;DHT22;4238;48.404;9.498;2023-08-06T14:20:54;13.40;99.90
8402;DHT22;4238;48.404;9.498;2023-08-06T14:23:21;13.40;99.90
8402;DHT22;4238;48.404;9.498;2023-08-06T14:25:48;13.40;99.90
8402;DHT22;4238;48.404;9.498;2023-08-06T14:28:15;13.40;99.90
8402;DHT22;4238;48.404;9.498;2023-08-06T14:30:42;13.40;99.90
8402;DHT22;4238;48.404;9.498;2023-08-06T14:33:10;13.60;99.90
8402;DHT22;4238;48.404;9.498;2023-08-06T14:35:37;13.70;99.90
8402;DHT22;4238;48.404;9.498;2023-08-06T14:38:03;13.80;99.90
8402;DHT22;4238;48.404;9.498;2023-08-06T14:40:30;13.90;99.90
8402;DHT22;4238;48.404;9.498;2023-08-06T14:43:00;14.30;99.90
8402;DHT22;4238;48.404;9.498;2023-08-06T14:45:28;14.60;99.90
8402;DHT22;4238;48.404;9.498;2023-08-06T14:47:55;14.70;99.90
8402;DHT22;4238;48.404;9.498;2023-08-06T14:50:23;14.50;75.60
8402;DHT22;4238;48.404;9.498;2023-08-06T14:52:50;14.30;86.40
8402;DHT22;4238;48.404;9.498;2023-08-06T14:55:24;14.10;96.20
8402;DHT22;4238;48.404;9.498;2023-08-06T14:57:51;13.70;89.60
8402;DHT22;4238;48.404;9.498;2023-08-06T15:00:18;13.60;99.90
8402;DHT22;4238;48.404;9.498;2023-08-06T15:02:45;13.70;99.90
8402;DHT22;4238;48.404;9.498;2023-08-06T15:05:12;13.80;97.90
8402;DHT22;4238;48.404;9.498;2023-08-06T15:07:40;13.70;97.00
8402;DHT22;4238;48.404;9.498;2023-08-06T15:10:07;13.70;99.70
8402;DHT22;4238;48.404;9.498;2023-08-06T15:12:34;13.70;99.90
8402;DHT22;4238;48.404;9.498;2023-08-06T15:15:01;13.60;99.70
8402;DHT22;4238;48.404;9.498;2023-08-06T15:17:28;13.60;99.90
8402;DHT22;4238;48.404;9.498;2023-08-06T15:19:56;13.60;99.90
8402;DHT22;4238;48.404;9.498;2023-08-06T15:22:24;13.60;92.90
8402;DHT22;4238;48.404;9.498;2023-08-06T15:24:52;13.60;95.90
8402;DHT22;4238;48.404;9.498;2023-08-06T15:27:19;13.50;86.60
8402;DHT22;4238;48.404;9.498;2023-08-06T15:29:46;13.30;90.80
8402;DHT22;4238;48.404;9.498;2023-08-06T15:32:13;13.20;94.60
8402;DHT22;4238;48.404;9.498;2023-08-06T15:34:40;13.10;97.50
8402;DHT22;4238;48.404;9.498;2023-08-06T15:37:07;13.00;91.20
8402;DHT22;4238;48.404;9.498;2023-08-06T15:39:34;13.00;91.20
8402;DHT22;4238;48.404;9.498;2023-08-06T15:42:02;13.10;99.90
8402;DHT22;4238;48.404;9.498;2023-08-06T15:44:29;13.40;96.70
8402;DHT22;4238;48.404;9.498;2023-08-06T15:46:56;13.60;90.10
8402;DHT22;4238;48.404;9.498;2023-08-06T15:49:23;13.70;92.70
8402;DHT22;4238;48.404;9.498;2023-08-06T15:51:50;13.90;82.90
8402;DHT22;4238;48.404;9.498;2023-08-06T15:54:18;14.00;67.90
8402;DHT22;4238;48.404;9.498;2023-08-06T15:56:45;14.10;65.50
8402;DHT22;4238;48.404;9.498;2023-08-06T15:59:23;14.10;52.30
8402;DHT22;4238;48.404;9.498;2023-08-06T16:01:51;14.20;66.10
8402;DHT22;4238;48.404;9.498;2023-08-06T16:04:18;14.20;47.70
8402;DHT22;4238;48.404;9.498;2023-08-06T16:06:45;14.20;37.50
8402;DHT22;4238;48.404;9.498;2023-08-06T16:09:12;14.30;39.90
8402;DHT22;4238;48.404;9.498;2023-08-06T16:11:40;14.20;27.40
8402;DHT22;4238;48.404;9.498;2023-08-06T16:14:07;14.20;26.60
8402;DHT22;4238;48.404;9.498;2023-08-06T16:16:36;14.20;42.30
8402;DHT22;4238;48.404;9.498;2023-08-06T16:19:03;14.20;14.80
8402;DHT22;4238;48.404;9.498;2023-08-06T16:21:30;14.20;36.60
8402;DHT22;4238;48.404;9.498;2023-08-06T16:23:57;14.10;27.00
8402;DHT22;4238;48.404;9.498;2023-08-06T16:26:24;14.00;25.60
8402;DHT22;4238;48.404;9.498;2023-08-06T16:28:51;13.90;32.30
8402;DHT22;4238;48.404;9.498;2023-08-06T16:31:18;13.80;35.80
8402;DHT22;4238;48.404;9.498;2023-08-06T16:33:46;13.60;25.10
8402;DHT22;4238;48.404;9.498;2023-08-06T16:36:13;13.40;37.40
8402;DHT22;4238;48.404;9.498;2023-08-06T16:38:40;13.20;72.30
8402;DHT22;4238;48.404;9.498;2023-08-06T16:41:07;13.00;87.00
8402;DHT22;4238;48.404;9.498;2023-08-06T16:43:34;12.80;99.90
8402;DHT22;4238;48.404;9.498;2023-08-06T16:46:01;12.80;99.90
8402;DHT22;4238;48.404;9.498;2023-08-06T16:48:28;12.70;99.90
8402;DHT22;4238;48.404;9.498;2023-08-06T16:50:59;12.70;99.90
8402;DHT22;4238;48.404;9.498;2023-08-06T16:53:26;12.60;99.90
8402;DHT22;4238;48.404;9.498;2023-08-06T16:55:54;12.60;99.90
8402;DHT22;4238;48.404;9.498;2023-08-06T16:58:24;12.60;99.90
8402;DHT22;4238;48.404;9.498;2023-08-06T17:00:52;12.60;99.90
8402;DHT22;4238;48.404;9.498;2023-08-06T17:03:20;12.60;99.90
8402;DHT22;4238;48.404;9.498;2023-08-06T17:05:47;12.60;99.90
8402;DHT22;4238;48.404;9.498;2023-08-06T17:08:16;12.50;99.90
8402;DHT22;4238;48.404;9.498;2023-08-06T17:10:42;12.40;99.90
8402;DHT22;4238;48.404;9.498;2023-08-06T17:13:09;12.30;99.90
8402;DHT22;4238;48.404;9.498;2023-08-06T17:15:36;12.30;99.90
8402;DHT22;4238;48.404;9.498;2023-08-06T17:18:03;12.20;99.90
8402;DHT22;4238;48.404;9.498;2023-08-06T17:20:30;12.20;99.90
8402;DHT22;4238;48.404;9.498;2023-08-06T17:22:58;12.20;99.90
8402;DHT22;4238;48.404;9.498;2023-08-06T17:25:26;12.10;99.90
8402;DHT22;4238;48.404;9.498;2023-08-06T17:27:53;12.00;99.90
8402;DHT22;4238;48.404;9.498;2023-08-06T17:30:19;11.90;99.90
8402;DHT22;4238;48.404;9.498;2023-08-06T17:32:46;11.90;99.90
8402;DHT22;4238;48.404;9.498;2023-08-06T17:35:13;11.80;99.90
8402;DHT22;4238;48.404;9.498;2023-08-06T17:37:41;11.80;99.90
8402;DHT22;4238;48.404;9.498;2023-08-06T17:40:08;11.70;99.90
8402;DHT22;4238;48.404;9.498;2023-08-06T17:42:37;11.70;99.90
8402;DHT22;4238;48.404;9.498;2023-08-06T17:45:04;11.70;99.90
8402;DHT22;4238;48.404;9.498;2023-08-06T17:47:31;11.70;99.90
8402;DHT22;4238;48.404;9.498;2023-08-06T17:49:58;11.70;99.90
8402;DHT22;4238;48.404;9.498;2023-08-06T17:52:25;11.70;99.90
8402;DHT22;4238;48.404;9.498;2023-08-06T17:54:52;11.70;99.90
8402;DHT22;4238;48.404;9.498;2023-08-06T17:57:19;11.70;99.90
8402;DHT22;4238;48.404;9.498;2023-08-06T17:59:47;11.70;99.90
8402;DHT22;4238;48.404;9.498;2023-08-06T18:02:14;11.70;99.90
8402;DHT22;4238;48.404;9.498;2023-08-06T18:04:41;11.70;99.90
8402;DHT22;4238;48.404;9.498;2023-08-06T18:07:08;11.60;99.90
8402;DHT22;4238;48.404;9.498;2023-08-06T18:09:34;11.60;99.90
8402;DHT22;4238;48.404;9.498;2023-08-06T18:12:01;11.50;99.90
8402;DHT22;4238;48.404;9.498;2023-08-06T18:14:28;11.50;99.90
8402;DHT22;4238;48.404;9.498;2023-08-06T18:16:56;11.40;99.90
8402;DHT22;4238;48.404;9.498;2023-08-06T18:19:23;11.40;99.90
8402;DHT22;4238;48.404;9.498;2023-08-06T18:21:50;11.50;99.90
8402;DHT22;4238;48.404;9.498;2023-08-06T18:24:17;11.50;99.90
8402;DHT22;4238;48.404;9.498;2023-08-06T18:26:44;11.40;99.90
8402;DHT22;4238;48.404;9.498;2023-08-06T18:29:11;11.40;99.90
8402;DHT22;4238;48.404;9.498;2023-08-06T18:31:38;11.30;99.90
8402;DHT22;4238;48.404;9.498;2023-08-06T18:34:06;11.30;99.90
8402;DHT22;4238;48.404;9.498;2023-08-06T18:36:34;11.30;99.90
8402;DHT22;4238;48.404;9.498;2023-08-06T18:39:01;11.30;99.90
8402;DHT22;4238;48.404;9.498;2023-08-06T18:41:27;11.30;99.90
8402;DHT22;4238;48.404;9.498;2023-08-06T18:43:54;11.30;99.90
8402;DHT22;4238;48.404;9.498;2023-08-06T18:46:21;11.30;99.90
8402;DHT22;4238;48.404;9.498;2023-08-06T18:48:48;11.30;99.90
8402;DHT22;4238;48.404;9.498;2023-08-06T18:51:16;11.30;99.90
8402;DHT22;4238;48.404;9.498;2023-08-06T18:53:45;11.30;99.90
8402;DHT22;4238;48.404;9.498;2023-08-06T18:56:12;11.20;99.90
8402;DHT22;4238;48.404;9.498;2023-08-06T18:58:39;11.20;99.90
8402;DHT22;4238;48.404;9.498;2023-08-06T19:01:06;11.20;99.90
8402;DHT22;4238;48.404;9.498;2023-08-06T19:03:32;11.20;99.90
8402;DHT22;4238;48.404;9.498;2023-08-06T19:06:01;11.20;99.90
8402;DHT22;4238;48.404;9.498;2023-08-06T19:08:31;11.20;99.90
8402;DHT22;4238;48.404;9.498;2023-08-06T19:10:58;11.10;99.90
8402;DHT22;4238;48.404;9.498;2023-08-06T19:13:25;11.20;99.90
8402;DHT22;4238;48.404;9.498;2023-08-06T19:15:51;11.20;99.90
8402;DHT22;4238;48.404;9.498;2023-08-06T19:18:18;11.30;99.90
8402;DHT22;4238;48.404;9.498;2023-08-06T19:20:45;11.30;99.90
8402;DHT22;4238;48.404;9.498;2023-08-06T19:23:12;11.30;99.90
8402;DHT22;4238;48.404;9.498;2023-08-06T19:25:44;11.20;99.90
8402;DHT22;4238;48.404;9.498;2023-08-06T19:28:12;11.20;99.90
8402;DHT22;4238;48.404;9.498;2023-08-06T19:30:42;11.30;99.90
8402;DHT22;4238;48.404;9.498;2023-08-06T19:33:10;11.30;99.90
8402;DHT22;4238;48.404;9.498;2023-08-06T19:35:45;11.30;99.90
8402;DHT22;4238;48.404;9.498;2023-08-06T19:38:13;11.30;99.90
8402;DHT22;4238;48.404;9.498;2023-08-06T19:40:40;11.30;99.90
8402;DHT22;4238;48.404;9.498;2023-08-06T19:43:08;11.40;99.90
8402;DHT22;4238;48.404;9.498;2023-08-06T19:45:35;11.40;99.90
8402;DHT22;4238;48.404;9.498;2023-08-06T19:48:02;11.40;99.90
8402;DHT22;4238;48.404;9.498;2023-08-06T19:50:29;11.40;99.90
8402;DHT22;4238;48.404;9.498;2023-08-06T19:52:57;11.40;99.90
8402;DHT22;4238;48.404;9.498;2023-08-06T19:55:24;11.40;99.90
8402;DHT22;4238;48.404;9.498;2023-08-06T19:57:51;11.40;99.90
8402;DHT22;4238;48.404;9.498;2023-08-06T20:00:19;11.40;99.90
8402;DHT22;4238;48.404;9.498;2023-08-06T20:02:46;11.40;99.90
8402;DHT22;4238;48.404;9.498;2023-08-06T20:05:13;11.40;99.90